sensor_id;sensor_type;location;lat;lon;timestamp;pressure;altitude;pressure_sealevel;temperature;humidity
84445;BME280;74683;48.402;10.596;2024-01-27T00:02:08;98105.81;;;-1.29;95.16
84445;BME280;74683;48.402;10.596;2024-01-27T00:04:36;98103.25;;;-1.35;95.78
84445;BME280;74683;48.402;10.596;2024-01-27T00:07:03;98100.91;;;-1.43;95.79
84445;BME280;74683;48.402;10.596;2024-01-27T00:09:30;98093.47;;;-1.48;95.22
84445;BME280;74683;48.402;10.596;2024-01-27T00:11:58;98103.81;;;-1.45;95.55
84445;BME280;74683;48.402;10.596;2024-01-27T00:14:24;98098.88;;;-1.48;95.89
84445;BME280;74683;48.402;10.596;2024-01-27T00:16:51;98094.66;;;-1.56;95.99
84445;BME280;74683;48.402;10.596;2024-01-27T00:19:17;98110.13;;;-1.63;95.53
84445;BME280;74683;48.402;10.596;2024-01-27T00:21:44;98113.50;;;-1.67;95.50
84445;BME280;74683;48.402;10.596;2024-01-27T00:24:13;98129.81;;;-1.62;95.68
84445;BME280;74683;48.402;10.596;2024-01-27T00:26:40;98128.28;;;-1.58;96.15
84445;BME280;74683;48.402;10.596;2024-01-27T00:29:07;98136.28;;;-1.52;96.09
84445;BME280;74683;48.402;10.596;2024-01-27T00:31:33;98134.75;;;-1.48;96.16
84445;BME280;74683;48.402;10.596;2024-01-27T00:34:00;98136.19;;;-1.45;95.65
84445;BME280;74683;48.402;10.596;2024-01-27T00:36:27;98129.16;;;-1.46;96.13
84445;BME280;74683;48.402;10.596;2024-01-27T00:38:54;98120.69;;;-1.50;96.41
84445;BME280;74683;48.402;10.596;2024-01-27T00:41:20;98116.25;;;-1.56;96.21
84445;BME280;74683;48.402;10.596;2024-01-27T00:43:47;98114.94;;;-1.65;95.74
84445;BME280;74683;48.402;10.596;2024-01-27T00:46:14;98119.59;;;-1.72;95.91
84445;BME280;74683;48.402;10.596;2024-01-27T00:48:41;98120.50;;;-1.78;95.93
84445;BME280;74683;48.402;10.596;2024-01-27T00:51:08;98118.50;;;-1.83;95.83
84445;BME280;74683;48.402;10.596;2024-01-27T00:53:35;98115.47;;;-1.86;96.02
84445;BME280;74683;48.402;10.596;2024-01-27T00:56:01;98120.47;;;-1.90;96.26
84445;BME280;74683;48.402;10.596;2024-01-27T00:58:28;98128.19;;;-1.93;96.37
84445;BME280;74683;48.402;10.596;2024-01-27T01:00:55;98139.81;;;-1.93;95.88
84445;BME280;74683;48.402;10.596;2024-01-27T01:03:21;98136.88;;;-1.91;96.66
84445;BME280;74683;48.402;10.596;2024-01-27T01:05:48;98140.16;;;-1.89;96.50
84445;BME280;74683;48.402;10.596;2024-01-27T01:08:15;98140.97;;;-1.89;96.26
84445;BME280;74683;48.402;10.596;2024-01-27T01:10:43;98135.34;;;-1.87;96.82
84445;BME280;74683;48.402;10.596;2024-01-27T01:13:10;98138.16;;;-1.94;96.63
84445;BME280;74683;48.402;10.596;2024-01-27T01:15:37;98149.75;;;-1.93;96.14
84445;BME280;74683;48.402;10.596;2024-01-27T01:18:04;98150.66;;;-1.99;96.75
84445;BME280;74683;48.402;10.596;2024-01-27T01:20:31;98146.78;;;-2.04;96.87
84445;BME280;74683;48.402;10.596;2024-01-27T01:22:59;98161.19;;;-1.98;96.88
84445;BME280;74683;48.402;10.596;2024-01-27T01:25:25;98162.72;;;-2.02;96.38
84445;BME280;74683;48.402;10.596;2024-01-27T01:27:52;98175.13;;;-2.01;96.97
84445;BME280;74683;48.402;10.596;2024-01-27T01:30:19;98170.22;;;-2.04;96.37
84445;BME280;74683;48.402;10.596;2024-01-27T01:32:45;98171.25;;;-2.05;96.16
84445;BME280;74683;48.402;10.596;2024-01-27T01:35:12;98169.81;;;-2.08;96.82
84445;BME280;74683;48.402;10.596;2024-01-27T01:37:39;98172.75;;;-2.09;96.21
84445;BME280;74683;48.402;10.596;2024-01-27T01:40:06;98177.78;;;-2.13;96.39
84445;BME280;74683;48.402;10.596;2024-01-27T01:42:33;98175.97;;;-2.19;96.68
84445;BME280;74683;48.402;10.596;2024-01-27T01:45:00;98182.66;;;-2.21;96.18
84445;BME280;74683;48.402;10.596;2024-01-27T01:47:27;98178.53;;;-2.24;96.41
84445;BME280;74683;48.402;10.596;2024-01-27T01:49:55;98174.41;;;-2.26;96.28
84445;BME280;74683;48.402;10.596;2024-01-27T01:52:22;98179.78;;;-2.26;96.79
84445;BME280;74683;48.402;10.596;2024-01-27T01:54:49;98179.78;;;-2.26;96.26
84445;BME280;74683;48.402;10.596;2024-01-27T01:57:17;98189.56;;;-2.25;96.36
84445;BME280;74683;48.402;10.596;2024-01-27T01:59:44;98183.53;;;-2.27;96.59
84445;BME280;74683;48.402;10.596;2024-01-27T02:02:12;98186.47;;;-2.29;96.90
84445;BME280;74683;48.402;10.596;2024-01-27T02:04:42;98184.00;;;-2.31;96.50
84445;BME280;74683;48.402;10.596;2024-01-27T02:07:09;98191.72;;;-2.34;96.08
84445;BME280;74683;48.402;10.596;2024-01-27T02:09:36;98183.88;;;-2.36;96.10
84445;BME280;74683;48.402;10.596;2024-01-27T02:12:04;98181.16;;;-2.36;96.11
84445;BME280;74683;48.402;10.596;2024-01-27T02:14:31;98176.00;;;-2.37;96.92
84445;BME280;74683;48.402;10.596;2024-01-27T02:16:57;98181.81;;;-2.40;96.00
84445;BME280;74683;48.402;10.596;2024-01-27T02:19:24;98177.31;;;-2.46;96.17
84445;BME280;74683;48.402;10.596;2024-01-27T02:21:51;98184.44;;;-2.52;96.19
84445;BME280;74683;48.402;10.596;2024-01-27T02:24:18;98185.78;;;-2.61;96.57
84445;BME280;74683;48.402;10.596;2024-01-27T02:26:44;98192.81;;;-2.60;96.88
84445;BME280;74683;48.402;10.596;2024-01-27T02:29:11;98190.28;;;-2.55;96.17
84445;BME280;74683;48.402;10.596;2024-01-27T02:31:38;98193.81;;;-2.54;96.14
84445;BME280;74683;48.402;10.596;2024-01-27T02:34:05;98199.03;;;-2.60;96.82
84445;BME280;74683;48.402;10.596;2024-01-27T02:36:31;98200.75;;;-2.65;96.09
84445;BME280;74683;48.402;10.596;2024-01-27T02:38:58;98210.06;;;-2.68;96.55
84445;BME280;74683;48.402;10.596;2024-01-27T02:41:25;98217.41;;;-2.75;96.20
84445;BME280;74683;48.402;10.596;2024-01-27T02:43:52;98222.38;;;-2.78;96.13
84445;BME280;74683;48.402;10.596;2024-01-27T02:46:18;98223.66;;;-2.81;96.34
84445;BME280;74683;48.402;10.596;2024-01-27T02:48:45;98230.72;;;-2.86;96.54
84445;BME280;74683;48.402;10.596;2024-01-27T02:51:12;98239.03;;;-2.88;96.44
84445;BME280;74683;48.402;10.596;2024-01-27T02:53:39;98239.22;;;-2.83;96.92
84445;BME280;74683;48.402;10.596;2024-01-27T02:56:07;98233.22;;;-2.85;96.83
84445;BME280;74683;48.402;10.596;2024-01-27T02:58:35;98233.00;;;-2.83;96.31
84445;BME280;74683;48.402;10.596;2024-01-27T03:01:01;98236.75;;;-2.84;96.57
84445;BME280;74683;48.402;10.596;2024-01-27T03:03:28;98232.38;;;-2.85;96.58
84445;BME280;74683;48.402;10.596;2024-01-27T03:05:55;98238.38;;;-2.83;96.52
84445;BME280;74683;48.402;10.596;2024-01-27T03:08:22;98243.13;;;-2.85;96.43
84445;BME280;74683;48.402;10.596;2024-01-27T03:10:49;98247.28;;;-2.83;97.07
84445;BME280;74683;48.402;10.596;2024-01-27T03:13:15;98254.22;;;-2.75;96.55
84445;BME280;74683;48.402;10.596;2024-01-27T03:15:42;98249.69;;;-2.75;97.09
84445;BME280;74683;48.402;10.596;2024-01-27T03:18:09;98243.91;;;-2.78;97.12
84445;BME280;74683;48.402;10.596;2024-01-27T03:20:36;98252.66;;;-2.83;96.82
84445;BME280;74683;48.402;10.596;2024-01-27T03:23:03;98257.03;;;-2.89;96.81
84445;BME280;74683;48.402;10.596;2024-01-27T03:25:30;98256.06;;;-2.94;97.31
84445;BME280;74683;48.402;10.596;2024-01-27T03:27:56;98256.72;;;-2.99;97.20
84445;BME280;74683;48.402;10.596;2024-01-27T03:30:23;98260.06;;;-3.03;96.30
84445;BME280;74683;48.402;10.596;2024-01-27T03:32:50;98258.03;;;-3.08;97.06
84445;BME280;74683;48.402;10.596;2024-01-27T03:35:17;98263.63;;;-3.09;97.10
84445;BME280;74683;48.402;10.596;2024-01-27T03:37:43;98272.75;;;-3.10;96.92
84445;BME280;74683;48.402;10.596;2024-01-27T03:40:12;98267.59;;;-3.12;96.18
84445;BME280;74683;48.402;10.596;2024-01-27T03:42:38;98269.44;;;-3.12;96.73
84445;BME280;74683;48.402;10.596;2024-01-27T03:45:05;98273.38;;;-3.15;96.33
84445;BME280;74683;48.402;10.596;2024-01-27T03:47:32;98274.00;;;-3.13;96.30
84445;BME280;74683;48.402;10.596;2024-01-27T03:49:59;98276.25;;;-3.10;97.22
84445;BME280;74683;48.402;10.596;2024-01-27T03:52:26;98280.16;;;-3.06;96.30
84445;BME280;74683;48.402;10.596;2024-01-27T03:54:52;98282.00;;;-3.06;96.58
84445;BME280;74683;48.402;10.596;2024-01-27T03:57:19;98280.16;;;-3.06;96.46
84445;BME280;74683;48.402;10.596;2024-01-27T03:59:45;98274.56;;;-3.04;96.71
84445;BME280;74683;48.402;10.596;2024-01-27T04:02:12;98276.00;;;-3.02;96.44
84445;BME280;74683;48.402;10.596;2024-01-27T04:04:38;98269.56;;;-3.01;96.39
84445;BME280;74683;48.402;10.596;2024-01-27T04:07:05;98269.13;;;-2.98;96.47
84445;BME280;74683;48.402;10.596;2024-01-27T04:09:32;98264.78;;;-2.99;96.37
84445;BME280;74683;48.402;10.596;2024-01-27T04:11:59;98271.81;;;-2.98;97.23
84445;BME280;74683;48.402;10.596;2024-01-27T04:14:26;98272.25;;;-3.01;96.86
84445;BME280;74683;48.402;10.596;2024-01-27T04:16:53;98274.16;;;-3.08;96.89
84445;BME280;74683;48.402;10.596;2024-01-27T04:19:20;98278.94;;;-3.10;96.49
84445;BME280;74683;48.402;10.596;2024-01-27T04:21:46;98281.25;;;-3.13;96.79
84445;BME280;74683;48.402;10.596;2024-01-27T04:24:13;98277.56;;;-3.19;96.55
84445;BME280;74683;48.402;10.596;2024-01-27T04:26:40;98281.88;;;-3.18;96.78
84445;BME280;74683;48.402;10.596;2024-01-27T04:29:06;98283.53;;;-3.17;96.44
84445;BME280;74683;48.402;10.596;2024-01-27T04:31:33;98287.88;;;-3.16;96.47
84445;BME280;74683;48.402;10.596;2024-01-27T04:34:00;98290.75;;;-3.11;96.37
84445;BME280;74683;48.402;10.596;2024-01-27T04:36:28;98294.69;;;-3.13;96.62
84445;BME280;74683;48.402;10.596;2024-01-27T04:38:57;98289.31;;;-3.13;96.43
84445;BME280;74683;48.402;10.596;2024-01-27T04:41:24;98287.22;;;-3.11;96.48
84445;BME280;74683;48.402;10.596;2024-01-27T04:43:50;98290.16;;;-3.13;96.18
84445;BME280;74683;48.402;10.596;2024-01-27T04:46:19;98286.44;;;-3.19;96.55
84445;BME280;74683;48.402;10.596;2024-01-27T04:48:46;98299.91;;;-3.25;97.16
84445;BME280;74683;48.402;10.596;2024-01-27T04:51:14;98299.53;;;-3.29;96.97
84445;BME280;74683;48.402;10.596;2024-01-27T04:53:40;98293.78;;;-3.32;96.64
84445;BME280;74683;48.402;10.596;2024-01-27T04:56:07;98293.59;;;-3.37;97.11
84445;BME280;74683;48.402;10.596;2024-01-27T04:58:35;98285.53;;;-3.37;96.54
84445;BME280;74683;48.402;10.596;2024-01-27T05:01:02;98287.59;;;-3.39;96.40
84445;BME280;74683;48.402;10.596;2024-01-27T05:03:29;98293.44;;;-3.42;97.32
84445;BME280;74683;48.402;10.596;2024-01-27T05:05:56;98288.28;;;-3.44;96.49
84445;BME280;74683;48.402;10.596;2024-01-27T05:08:22;98292.03;;;-3.52;96.41
84445;BME280;74683;48.402;10.596;2024-01-27T05:10:49;98292.03;;;-3.52;97.14
84445;BME280;74683;48.402;10.596;2024-01-27T05:13:15;98290.16;;;-3.51;97.30
84445;BME280;74683;48.402;10.596;2024-01-27T05:15:43;98299.28;;;-3.52;96.69
84445;BME280;74683;48.402;10.596;2024-01-27T05:18:09;98296.38;;;-3.51;96.51
84445;BME280;74683;48.402;10.596;2024-01-27T05:20:37;98299.69;;;-3.55;97.04
84445;BME280;74683;48.402;10.596;2024-01-27T05:23:03;98303.25;;;-3.61;97.41
84445;BME280;74683;48.402;10.596;2024-01-27T05:25:30;98310.09;;;-3.72;97.21
84445;BME280;74683;48.402;10.596;2024-01-27T05:27:57;98312.00;;;-3.79;96.41
84445;BME280;74683;48.402;10.596;2024-01-27T05:30:24;98307.44;;;-3.79;97.13
84445;BME280;74683;48.402;10.596;2024-01-27T05:32:50;98313.84;;;-3.80;96.89
84445;BME280;74683;48.402;10.596;2024-01-27T05:35:17;98305.59;;;-3.85;96.29
84445;BME280;74683;48.402;10.596;2024-01-27T05:37:43;98310.56;;;-3.88;96.72
84445;BME280;74683;48.402;10.596;2024-01-27T05:40:10;98313.06;;;-3.93;96.78
84445;BME280;74683;48.402;10.596;2024-01-27T05:42:37;98313.50;;;-3.96;96.46
84445;BME280;74683;48.402;10.596;2024-01-27T05:45:04;98313.06;;;-3.93;97.14
84445;BME280;74683;48.402;10.596;2024-01-27T05:47:31;98320.28;;;-3.94;96.56
84445;BME280;74683;48.402;10.596;2024-01-27T05:49:59;98329.81;;;-3.91;96.39
84445;BME280;74683;48.402;10.596;2024-01-27T05:52:25;98324.66;;;-3.99;97.05
84445;BME280;74683;48.402;10.596;2024-01-27T05:55:02;98323.41;;;-4.04;96.94
84445;BME280;74683;48.402;10.596;2024-01-27T05:57:30;98329.00;;;-4.05;96.52
84445;BME280;74683;48.402;10.596;2024-01-27T05:59:57;98323.25;;;-4.09;97.27
84445;BME280;74683;48.402;10.596;2024-01-27T06:02:23;98325.94;;;-4.09;97.04
84445;BME280;74683;48.402;10.596;2024-01-27T06:04:50;98331.50;;;-4.10;97.35
84445;BME280;74683;48.402;10.596;2024-01-27T06:07:17;98336.06;;;-4.11;97.17
84445;BME280;74683;48.402;10.596;2024-01-27T06:09:43;98339.97;;;-4.13;96.65
84445;BME280;74683;48.402;10.596;2024-01-27T06:12:10;98338.97;;;-4.25;97.09
84445;BME280;74683;48.402;10.596;2024-01-27T06:14:37;98344.75;;;-4.28;97.16
84445;BME280;74683;48.402;10.596;2024-01-27T06:17:04;98344.97;;;-4.30;96.41
84445;BME280;74683;48.402;10.596;2024-01-27T06:19:31;98349.50;;;-4.30;97.03
84445;BME280;74683;48.402;10.596;2024-01-27T06:21:58;98349.72;;;-4.32;96.51
84445;BME280;74683;48.402;10.596;2024-01-27T06:24:26;98351.38;;;-4.31;96.68
84445;BME280;74683;48.402;10.596;2024-01-27T06:26:53;98344.75;;;-4.35;96.95
84445;BME280;74683;48.402;10.596;2024-01-27T06:29:20;98350.75;;;-4.40;97.40
84445;BME280;74683;48.402;10.596;2024-01-27T06:31:47;98351.59;;;-4.39;96.25
84445;BME280;74683;48.402;10.596;2024-01-27T06:34:13;98357.13;;;-4.34;97.41
84445;BME280;74683;48.402;10.596;2024-01-27T06:36:40;98362.94;;;-4.37;96.87
84445;BME280;74683;48.402;10.596;2024-01-27T06:39:07;98357.56;;;-4.37;96.86
84445;BME280;74683;48.402;10.596;2024-01-27T06:41:34;98358.00;;;-4.40;97.22
84445;BME280;74683;48.402;10.596;2024-01-27T06:44:01;98363.97;;;-4.38;96.39
84445;BME280;74683;48.402;10.596;2024-01-27T06:46:27;98368.31;;;-4.30;96.83
84445;BME280;74683;48.402;10.596;2024-01-27T06:48:54;98361.28;;;-4.31;97.29
84445;BME280;74683;48.402;10.596;2024-01-27T06:51:21;98367.06;;;-4.28;96.20
84445;BME280;74683;48.402;10.596;2024-01-27T06:53:48;98370.34;;;-4.26;96.75
84445;BME280;74683;48.402;10.596;2024-01-27T06:56:15;98371.00;;;-4.37;96.96
84445;BME280;74683;48.402;10.596;2024-01-27T06:58:41;98376.56;;;-4.45;96.78
84445;BME280;74683;48.402;10.596;2024-01-27T07:01:08;98380.09;;;-4.51;96.43
84445;BME280;74683;48.402;10.596;2024-01-27T07:03:35;98372.03;;;-4.58;96.50
84445;BME280;74683;48.402;10.596;2024-01-27T07:06:02;98382.75;;;-4.65;96.72
84445;BME280;74683;48.402;10.596;2024-01-27T07:08:29;98391.41;;;-4.63;96.50
84445;BME280;74683;48.402;10.596;2024-01-27T07:10:55;98387.28;;;-4.65;96.53
84445;BME280;74683;48.402;10.596;2024-01-27T07:13:22;98394.31;;;-4.64;96.88
84445;BME280;74683;48.402;10.596;2024-01-27T07:15:48;98384.22;;;-4.62;96.28
84445;BME280;74683;48.402;10.596;2024-01-27T07:18:15;98391.41;;;-4.56;97.29
84445;BME280;74683;48.402;10.596;2024-01-27T07:20:44;98381.94;;;-4.52;96.81
84445;BME280;74683;48.402;10.596;2024-01-27T07:23:10;98380.91;;;-4.51;96.90
84445;BME280;74683;48.402;10.596;2024-01-27T07:25:37;98393.09;;;-4.42;96.77
84445;BME280;74683;48.402;10.596;2024-01-27T07:28:04;98389.56;;;-4.36;96.54
84445;BME280;74683;48.402;10.596;2024-01-27T07:30:31;98399.06;;;-4.26;96.58
84445;BME280;74683;48.402;10.596;2024-01-27T07:32:58;98394.72;;;-4.21;96.85
84445;BME280;74683;48.402;10.596;2024-01-27T07:35:24;98387.91;;;-4.17;96.32
84445;BME280;74683;48.402;10.596;2024-01-27T07:37:51;98385.22;;;-4.17;96.58
84445;BME280;74683;48.402;10.596;2024-01-27T07:40:17;98396.78;;;-4.10;97.07
84445;BME280;74683;48.402;10.596;2024-01-27T07:42:44;98392.84;;;-4.07;96.99
84445;BME280;74683;48.402;10.596;2024-01-27T07:45:11;98395.94;;;-4.04;97.15
84445;BME280;74683;48.402;10.596;2024-01-27T07:47:37;98398.00;;;-3.99;96.42
84445;BME280;74683;48.402;10.596;2024-01-27T07:50:05;98397.38;;;-3.94;96.37
84445;BME280;74683;48.402;10.596;2024-01-27T07:52:31;98400.25;;;-3.83;96.71
84445;BME280;74683;48.402;10.596;2024-01-27T07:54:58;98404.16;;;-3.72;96.49
84445;BME280;74683;48.402;10.596;2024-01-27T07:57:24;98391.50;;;-3.65;96.34
84445;BME280;74683;48.402;10.596;2024-01-27T07:59:51;98397.47;;;-3.56;97.46
84445;BME280;74683;48.402;10.596;2024-01-27T08:02:17;98391.44;;;-3.45;97.39
84445;BME280;74683;48.402;10.596;2024-01-27T08:04:44;98391.81;;;-3.35;96.72
84445;BME280;74683;48.402;10.596;2024-01-27T08:07:10;98395.28;;;-3.21;96.91
84445;BME280;74683;48.402;10.596;2024-01-27T08:09:37;98385.50;;;-3.15;96.44
84445;BME280;74683;48.402;10.596;2024-01-27T08:12:07;98388.78;;;-3.07;97.27
84445;BME280;74683;48.402;10.596;2024-01-27T08:14:33;98380.91;;;-3.02;97.38
84445;BME280;74683;48.402;10.596;2024-01-27T08:17:01;98389.56;;;-2.93;96.16
84445;BME280;74683;48.402;10.596;2024-01-27T08:19:29;98388.44;;;-2.85;96.86
84445;BME280;74683;48.402;10.596;2024-01-27T08:21:56;98387.59;;;-2.79;96.84
84445;BME280;74683;48.402;10.596;2024-01-27T08:24:23;98384.66;;;-2.71;97.15
84445;BME280;74683;48.402;10.596;2024-01-27T08:26:51;98382.13;;;-2.66;96.66
84445;BME280;74683;48.402;10.596;2024-01-27T08:29:17;98390.53;;;-2.56;96.90
84445;BME280;74683;48.402;10.596;2024-01-27T08:31:44;98386.53;;;-2.47;96.47
84445;BME280;74683;48.402;10.596;2024-01-27T08:34:10;98388.72;;;-2.37;96.57
84445;BME280;74683;48.402;10.596;2024-01-27T08:36:39;98389.88;;;-2.26;96.54
84445;BME280;74683;48.402;10.596;2024-01-27T08:39:06;98389.38;;;-2.17;96.86
84445;BME280;74683;48.402;10.596;2024-01-27T08:41:35;98391.38;;;-2.06;96.84
84445;BME280;74683;48.402;10.596;2024-01-27T08:44:02;98384.88;;;-1.98;96.89
84445;BME280;74683;48.402;10.596;2024-01-27T08:46:29;98394.09;;;-1.87;96.63
84445;BME280;74683;48.402;10.596;2024-01-27T08:48:55;98398.53;;;-1.75;96.88
84445;BME280;74683;48.402;10.596;2024-01-27T08:51:22;98397.34;;;-1.60;97.20
84445;BME280;74683;48.402;10.596;2024-01-27T08:53:49;98400.94;;;-1.48;96.79
84445;BME280;74683;48.402;10.596;2024-01-27T08:56:16;98401.09;;;-1.25;96.76
84445;BME280;74683;48.402;10.596;2024-01-27T08:58:44;98408.41;;;-0.65;97.00
84445;BME280;74683;48.402;10.596;2024-01-27T09:01:11;98407.47;;;0.18;97.14
84445;BME280;74683;48.402;10.596;2024-01-27T09:03:41;98394.91;;;1.15;97.54
84445;BME280;74683;48.402;10.596;2024-01-27T09:06:08;98402.63;;;1.97;97.38
84445;BME280;74683;48.402;10.596;2024-01-27T09:08:35;98408.69;;;2.77;95.25
84445;BME280;74683;48.402;10.596;2024-01-27T09:11:02;98403.78;;;3.23;89.40
84445;BME280;74683;48.402;10.596;2024-01-27T09:13:29;98391.88;;;3.83;85.80
84445;BME280;74683;48.402;10.596;2024-01-27T09:15:59;98396.91;;;4.33;84.07
84445;BME280;74683;48.402;10.596;2024-01-27T09:18:26;98396.69;;;4.87;82.16
84445;BME280;74683;48.402;10.596;2024-01-27T09:20:54;98408.03;;;5.36;80.28
84445;BME280;74683;48.402;10.596;2024-01-27T09:23:20;98403.00;;;5.91;78.17
84445;BME280;74683;48.402;10.596;2024-01-27T09:25:47;98403.00;;;6.26;77.51
84445;BME280;74683;48.402;10.596;2024-01-27T09:28:14;98405.19;;;6.50;75.52
84445;BME280;74683;48.402;10.596;2024-01-27T09:30:42;98413.53;;;6.94;74.91
84445;BME280;74683;48.402;10.596;2024-01-27T09:33:09;98421.34;;;7.26;73.58
84445;BME280;74683;48.402;10.596;2024-01-27T09:35:35;98422.38;;;7.40;72.40
84445;BME280;74683;48.402;10.596;2024-01-27T09:38:02;98419.75;;;7.15;71.34
84445;BME280;74683;48.402;10.596;2024-01-27T09:40:29;98405.19;;;7.30;71.87
84445;BME280;74683;48.402;10.596;2024-01-27T09:42:59;98410.34;;;7.41;71.93
84445;BME280;74683;48.402;10.596;2024-01-27T09:45:27;98394.44;;;7.48;70.73
84445;BME280;74683;48.402;10.596;2024-01-27T09:47:56;98406.63;;;7.66;70.65
84445;BME280;74683;48.402;10.596;2024-01-27T09:50:25;98410.97;;;7.78;69.79
84445;BME280;74683;48.402;10.596;2024-01-27T09:52:52;98410.16;;;7.72;69.69
84445;BME280;74683;48.402;10.596;2024-01-27T09:55:20;98405.72;;;7.81;69.75
84445;BME280;74683;48.402;10.596;2024-01-27T09:57:46;98408.91;;;7.98;69.41
84445;BME280;74683;48.402;10.596;2024-01-27T10:00:14;98405.28;;;8.03;68.80
84445;BME280;74683;48.402;10.596;2024-01-27T10:02:45;98399.34;;;8.25;68.82
84445;BME280;74683;48.402;10.596;2024-01-27T10:05:13;98393.63;;;8.26;67.75
84445;BME280;74683;48.402;10.596;2024-01-27T10:07:39;98392.00;;;8.20;67.39
84445;BME280;74683;48.402;10.596;2024-01-27T10:10:07;98394.16;;;8.23;67.15
84445;BME280;74683;48.402;10.596;2024-01-27T10:12:41;98393.75;;;8.06;66.97
84445;BME280;74683;48.402;10.596;2024-01-27T10:15:21;98394.63;;;8.01;65.06
84445;BME280;74683;48.402;10.596;2024-01-27T10:17:48;98400.91;;;8.02;66.64
84445;BME280;74683;48.402;10.596;2024-01-27T10:20:15;98400.16;;;7.96;66.05
84445;BME280;74683;48.402;10.596;2024-01-27T10:22:42;98407.28;;;7.97;65.52
84445;BME280;74683;48.402;10.596;2024-01-27T10:25:11;98418.25;;;7.92;64.47
84445;BME280;74683;48.402;10.596;2024-01-27T10:27:38;98407.34;;;7.82;64.65
84445;BME280;74683;48.402;10.596;2024-01-27T10:30:06;98411.84;;;7.68;64.74
84445;BME280;74683;48.402;10.596;2024-01-27T10:32:34;98406.38;;;7.68;64.88
84445;BME280;74683;48.402;10.596;2024-01-27T10:35:07;98404.69;;;7.72;63.45
84445;BME280;74683;48.402;10.596;2024-01-27T10:37:38;98400.47;;;7.90;63.76
84445;BME280;74683;48.402;10.596;2024-01-27T10:40:06;98404.63;;;7.82;63.29
84445;BME280;74683;48.402;10.596;2024-01-27T10:42:35;98405.16;;;7.84;63.51
84445;BME280;74683;48.402;10.596;2024-01-27T10:45:03;98399.44;;;7.81;62.10
84445;BME280;74683;48.402;10.596;2024-01-27T10:47:32;98397.00;;;7.74;61.59
84445;BME280;74683;48.402;10.596;2024-01-27T10:50:00;98398.84;;;7.84;61.18
84445;BME280;74683;48.402;10.596;2024-01-27T10:52:37;98399.13;;;7.87;63.65
84445;BME280;74683;48.402;10.596;2024-01-27T10:55:05;98395.53;;;7.92;61.59
84445;BME280;74683;48.402;10.596;2024-01-27T10:57:36;98381.88;;;7.87;62.20
84445;BME280;74683;48.402;10.596;2024-01-27T11:00:04;98387.63;;;7.85;60.80
84445;BME280;74683;48.402;10.596;2024-01-27T11:02:35;98387.22;;;7.63;61.71
84445;BME280;74683;48.402;10.596;2024-01-27T11:05:06;98399.69;;;7.35;61.51
84445;BME280;74683;48.402;10.596;2024-01-27T11:07:34;98396.72;;;7.26;61.69
84445;BME280;74683;48.402;10.596;2024-01-27T11:10:01;98388.84;;;7.14;61.71
84445;BME280;74683;48.402;10.596;2024-01-27T11:12:29;98389.38;;;7.22;63.09
84445;BME280;74683;48.402;10.596;2024-01-27T11:14:56;98385.13;;;7.44;64.40
84445;BME280;74683;48.402;10.596;2024-01-27T11:17:25;98384.53;;;7.58;63.40
84445;BME280;74683;48.402;10.596;2024-01-27T11:19:53;98395.09;;;7.25;62.32
84445;BME280;74683;48.402;10.596;2024-01-27T11:22:24;98392.59;;;7.34;62.89
84445;BME280;74683;48.402;10.596;2024-01-27T11:27:39;98387.97;;;7.29;62.42
84445;BME280;74683;48.402;10.596;2024-01-27T11:30:24;98385.25;;;7.24;62.59
84445;BME280;74683;48.402;10.596;2024-01-27T11:32:52;98388.25;;;7.28;62.19
84445;BME280;74683;48.402;10.596;2024-01-27T11:35:19;98390.44;;;7.31;63.51
84445;BME280;74683;48.402;10.596;2024-01-27T11:37:46;98398.59;;;7.36;63.19
84445;BME280;74683;48.402;10.596;2024-01-27T11:40:14;98386.28;;;7.38;62.77
84445;BME280;74683;48.402;10.596;2024-01-27T11:42:42;98388.78;;;7.30;60.88
84445;BME280;74683;48.402;10.596;2024-01-27T11:45:09;98389.63;;;7.25;61.22
84445;BME280;74683;48.402;10.596;2024-01-27T11:47:36;98383.03;;;7.26;60.92
84445;BME280;74683;48.402;10.596;2024-01-27T11:50:03;98381.41;;;7.25;61.33
84445;BME280;74683;48.402;10.596;2024-01-27T11:52:30;98373.72;;;7.27;61.80
84445;BME280;74683;48.402;10.596;2024-01-27T11:55:00;98377.22;;;7.43;61.58
84445;BME280;74683;48.402;10.596;2024-01-27T11:57:26;98377.97;;;7.54;60.39
84445;BME280;74683;48.402;10.596;2024-01-27T11:59:54;98381.84;;;7.47;59.68
84445;BME280;74683;48.402;10.596;2024-01-27T12:02:21;98367.09;;;7.43;60.75
84445;BME280;74683;48.402;10.596;2024-01-27T12:04:48;98364.66;;;7.37;59.62
84445;BME280;74683;48.402;10.596;2024-01-27T12:07:16;98356.13;;;7.48;60.99
84445;BME280;74683;48.402;10.596;2024-01-27T12:09:49;98346.88;;;7.39;59.63
84445;BME280;74683;48.402;10.596;2024-01-27T12:12:17;98347.22;;;7.28;59.23
84445;BME280;74683;48.402;10.596;2024-01-27T12:14:49;98355.78;;;7.06;60.24
84445;BME280;74683;48.402;10.596;2024-01-27T12:17:17;98345.31;;;7.23;61.03
84445;BME280;74683;48.402;10.596;2024-01-27T12:19:52;98347.22;;;7.28;58.39
84445;BME280;74683;48.402;10.596;2024-01-27T12:22:22;98345.31;;;7.23;57.34
84445;BME280;74683;48.402;10.596;2024-01-27T12:24:49;98345.13;;;7.04;58.80
84445;BME280;74683;48.402;10.596;2024-01-27T12:27:16;98346.47;;;7.07;60.01
84445;BME280;74683;48.402;10.596;2024-01-27T12:29:43;98340.25;;;6.96;56.83
84445;BME280;74683;48.402;10.596;2024-01-27T12:32:10;98342.13;;;7.06;57.08
84445;BME280;74683;48.402;10.596;2024-01-27T12:34:40;98334.94;;;7.20;59.54
84445;BME280;74683;48.402;10.596;2024-01-27T12:37:08;98323.16;;;7.25;60.08
84445;BME280;74683;48.402;10.596;2024-01-27T12:39:37;98322.03;;;7.31;57.12
84445;BME280;74683;48.402;10.596;2024-01-27T12:42:05;98326.34;;;7.37;58.15
84445;BME280;74683;48.402;10.596;2024-01-27T12:44:32;98325.28;;;7.33;57.29
84445;BME280;74683;48.402;10.596;2024-01-27T12:46:58;98318.97;;;7.37;58.07
84445;BME280;74683;48.402;10.596;2024-01-27T12:49:25;98324.88;;;7.55;57.40
84445;BME280;74683;48.402;10.596;2024-01-27T12:51:52;98319.91;;;7.62;56.16
84445;BME280;74683;48.402;10.596;2024-01-27T12:54:18;98309.56;;;7.54;55.44
84445;BME280;74683;48.402;10.596;2024-01-27T12:56:46;98311.78;;;7.46;55.20